sensor_id;sensor_type;location;lat;lon;timestamp;P1;durP1;ratioP1;P2;durP2;ratioP2
22983;SDS011;11658;48.908;9.140;2023-06-22T04:02:03;10.07;;;7.73;;
22983;SDS011;11658;48.908;9.140;2023-06-22T04:04:29;9.20;;;7.47;;
22983;SDS011;11658;48.908;9.140;2023-06-22T04:06:55;8.47;;;7.57;;
22983;SDS011;11658;48.908;9.140;2023-06-22T04:09:20;9.07;;;7.57;;
22983;SDS011;11658;48.908;9.140;2023-06-22T04:11:46;10.93;;;7.40;;
22983;SDS011;11658;48.908;9.140;2023-06-22T04:14:12;10.80;;;8.33;;
22983;SDS011;11658;48.908;9.140;2023-06-22T04:16:38;9.27;;;7.57;;
22983;SDS011;11658;48.908;9.140;2023-06-22T04:19:03;11.23;;;7.67;;
22983;SDS011;11658;48.908;9.140;2023-06-22T04:21:29;9.57;;;6.90;;
22983;SDS011;11658;48.908;9.140;2023-06-22T04:23:55;8.83;;;6.83;;
22983;SDS011;11658;48.908;9.140;2023-06-22T04:26:20;11.83;;;7.93;;
22983;SDS011;11658;48.908;9.140;2023-06-22T04:28:46;12.20;;;8.07;;
22983;SDS011;11658;48.908;9.140;2023-06-22T04:31:16;8.50;;;7.60;;
22983;SDS011;11658;48.908;9.140;2023-06-22T04:33:43;8.87;;;7.03;;
22983;SDS011;11658;48.908;9.140;2023-06-22T04:36:08;7.33;;;6.60;;
22983;SDS011;11658;48.908;9.140;2023-06-22T04:38:38;8.53;;;6.73;;
22983;SDS011;11658;48.908;9.140;2023-06-22T04:41:04;8.47;;;6.73;;
22983;SDS011;11658;48.908;9.140;2023-06-22T04:43:29;8.32;;;7.07;;
22983;SDS011;11658;48.908;9.140;2023-06-22T04:45:55;10.15;;;6.88;;
22983;SDS011;11658;48.908;9.140;2023-06-22T04:48:28;7.97;;;6.78;;
22983;SDS011;11658;48.908;9.140;2023-06-22T04:50:57;9.18;;;7.07;;
22983;SDS011;11658;48.908;9.140;2023-06-22T04:53:29;8.63;;;7.47;;
22983;SDS011;11658;48.908;9.140;2023-06-22T04:55:55;9.52;;;7.25;;
22983;SDS011;11658;48.908;9.140;2023-06-22T04:58:20;8.68;;;6.93;;
22983;SDS011;11658;48.908;9.140;2023-06-22T05:00:46;10.43;;;7.38;;
22983;SDS011;11658;48.908;9.140;2023-06-22T05:03:12;9.45;;;6.75;;
22983;SDS011;11658;48.908;9.140;2023-06-22T05:05:38;7.70;;;7.00;;
22983;SDS011;11658;48.908;9.140;2023-06-22T05:08:04;8.38;;;7.55;;
22983;SDS011;11658;48.908;9.140;2023-06-22T05:10:31;9.27;;;7.30;;
22983;SDS011;11658;48.908;9.140;2023-06-22T05:12:57;10.38;;;7.25;;
22983;SDS011;11658;48.908;9.140;2023-06-22T05:15:23;11.05;;;7.60;;
22983;SDS011;11658;48.908;9.140;2023-06-22T05:17:53;9.05;;;8.15;;
22983;SDS011;11658;48.908;9.140;2023-06-22T05:20:18;9.85;;;7.63;;
22983;SDS011;11658;48.908;9.140;2023-06-22T05:22:44;9.02;;;7.25;;
22983;SDS011;11658;48.908;9.140;2023-06-22T05:25:10;8.98;;;7.38;;
22983;SDS011;11658;48.908;9.140;2023-06-22T05:27:36;8.52;;;7.30;;
22983;SDS011;11658;48.908;9.140;2023-06-22T05:30:08;9.52;;;7.20;;
22983;SDS011;11658;48.908;9.140;2023-06-22T05:32:34;9.25;;;7.47;;
22983;SDS011;11658;48.908;9.140;2023-06-22T05:35:01;10.02;;;7.00;;
22983;SDS011;11658;48.908;9.140;2023-06-22T05:37:28;7.95;;;7.05;;
22983;SDS011;11658;48.908;9.140;2023-06-22T05:39:54;7.43;;;6.55;;
22983;SDS011;11658;48.908;9.140;2023-06-22T05:42:20;8.60;;;7.40;;
22983;SDS011;11658;48.908;9.140;2023-06-22T05:44:46;8.50;;;7.57;;
22983;SDS011;11658;48.908;9.140;2023-06-22T05:47:12;8.70;;;6.90;;
22983;SDS011;11658;48.908;9.140;2023-06-22T05:49:38;9.60;;;6.10;;
22983;SDS011;11658;48.908;9.140;2023-06-22T05:52:03;9.52;;;6.47;;
22983;SDS011;11658;48.908;9.140;2023-06-22T05:54:29;7.78;;;5.70;;
22983;SDS011;11658;48.908;9.140;2023-06-22T06:00:04;7.38;;;6.63;;
22983;SDS011;11658;48.908;9.140;2023-06-22T06:02:35;7.90;;;7.10;;
22983;SDS011;11658;48.908;9.140;2023-06-22T06:05:01;11.23;;;6.70;;
22983;SDS011;11658;48.908;9.140;2023-06-22T06:07:28;10.35;;;7.15;;
22983;SDS011;11658;48.908;9.140;2023-06-22T06:09:54;9.55;;;6.28;;
22983;SDS011;11658;48.908;9.140;2023-06-22T06:12:20;8.55;;;6.57;;
22983;SDS011;11658;48.908;9.140;2023-06-22T06:14:45;9.82;;;6.50;;
22983;SDS011;11658;48.908;9.140;2023-06-22T06:17:12;10.70;;;6.47;;
22983;SDS011;11658;48.908;9.140;2023-06-22T06:19:38;6.93;;;5.38;;
22983;SDS011;11658;48.908;9.140;2023-06-22T06:22:03;7.88;;;6.25;;
22983;SDS011;11658;48.908;9.140;2023-06-22T06:24:29;8.10;;;6.50;;
22983;SDS011;11658;48.908;9.140;2023-06-22T06:26:54;8.63;;;6.32;;
22983;SDS011;11658;48.908;9.140;2023-06-22T06:29:20;9.02;;;5.90;;
22983;SDS011;11658;48.908;9.140;2023-06-22T06:31:46;11.93;;;10.73;;
22983;SDS011;11658;48.908;9.140;2023-06-22T06:34:12;8.50;;;6.63;;
22983;SDS011;11658;48.908;9.140;2023-06-22T06:36:37;7.97;;;6.53;;
22983;SDS011;11658;48.908;9.140;2023-06-22T06:39:03;7.78;;;5.68;;
22983;SDS011;11658;48.908;9.140;2023-06-22T06:41:29;7.65;;;6.03;;
22983;SDS011;11658;48.908;9.140;2023-06-22T06:43:54;6.53;;;5.28;;
22983;SDS011;11658;48.908;9.140;2023-06-22T06:46:20;9.25;;;5.72;;
22983;SDS011;11658;48.908;9.140;2023-06-22T06:48:45;6.22;;;5.55;;
22983;SDS011;11658;48.908;9.140;2023-06-22T06:51:11;7.90;;;5.28;;
22983;SDS011;11658;48.908;9.140;2023-06-22T06:53:37;7.63;;;5.68;;
22983;SDS011;11658;48.908;9.140;2023-06-22T06:56:03;7.55;;;5.88;;
22983;SDS011;11658;48.908;9.140;2023-06-22T06:58:30;6.32;;;4.80;;
22983;SDS011;11658;48.908;9.140;2023-06-22T07:00:56;6.47;;;5.20;;
22983;SDS011;11658;48.908;9.140;2023-06-22T07:03:21;8.20;;;5.88;;
22983;SDS011;11658;48.908;9.140;2023-06-22T07:05:47;8.95;;;5.72;;
22983;SDS011;11658;48.908;9.140;2023-06-22T07:08:13;7.55;;;5.50;;
22983;SDS011;11658;48.908;9.140;2023-06-22T07:10:38;6.55;;;5.35;;
22983;SDS011;11658;48.908;9.140;2023-06-22T07:13:04;7.15;;;5.30;;
22983;SDS011;11658;48.908;9.140;2023-06-22T07:15:29;8.07;;;5.53;;
22983;SDS011;11658;48.908;9.140;2023-06-22T07:17:55;7.18;;;5.70;;
22983;SDS011;11658;48.908;9.140;2023-06-22T07:20:20;5.45;;;4.82;;
22983;SDS011;11658;48.908;9.140;2023-06-22T07:22:46;8.15;;;5.97;;
22983;SDS011;11658;48.908;9.140;2023-06-22T07:25:12;10.20;;;5.72;;
22983;SDS011;11658;48.908;9.140;2023-06-22T07:27:39;7.00;;;5.65;;
22983;SDS011;11658;48.908;9.140;2023-06-22T07:30:09;8.38;;;5.38;;
22983;SDS011;11658;48.908;9.140;2023-06-22T07:32:35;6.50;;;4.90;;
22983;SDS011;11658;48.908;9.140;2023-06-22T07:35:01;7.40;;;5.30;;
22983;SDS011;11658;48.908;9.140;2023-06-22T07:37:27;6.93;;;4.90;;
22983;SDS011;11658;48.908;9.140;2023-06-22T07:39:54;5.85;;;5.30;;
22983;SDS011;11658;48.908;9.140;2023-06-22T07:42:26;7.03;;;5.20;;
22983;SDS011;11658;48.908;9.140;2023-06-22T07:44:51;6.53;;;4.90;;
22983;SDS011;11658;48.908;9.140;2023-06-22T07:47:17;6.95;;;4.90;;
22983;SDS011;11658;48.908;9.140;2023-06-22T07:49:44;5.32;;;4.65;;
22983;SDS011;11658;48.908;9.140;2023-06-22T07:52:10;7.40;;;5.40;;
22983;SDS011;11658;48.908;9.140;2023-06-22T07:54:36;5.60;;;5.00;;
22983;SDS011;11658;48.908;9.140;2023-06-22T07:57:02;5.60;;;4.60;;
22983;SDS011;11658;48.908;9.140;2023-06-22T07:59:27;7.15;;;4.82;;
22983;SDS011;11658;48.908;9.140;2023-06-22T08:01:54;6.93;;;4.53;;
22983;SDS011;11658;48.908;9.140;2023-06-22T08:04:20;5.55;;;4.88;;
22983;SDS011;11658;48.908;9.140;2023-06-22T08:06:45;6.00;;;4.60;;
22983;SDS011;11658;48.908;9.140;2023-06-22T08:09:11;7.65;;;5.00;;
22983;SDS011;11658;48.908;9.140;2023-06-22T08:11:37;6.75;;;4.25;;
22983;SDS011;11658;48.908;9.140;2023-06-22T08:14:02;5.63;;;3.97;;
22983;SDS011;11658;48.908;9.140;2023-06-22T08:16:28;5.80;;;4.85;;
22983;SDS011;11658;48.908;9.140;2023-06-22T08:18:54;6.97;;;5.20;;
22983;SDS011;11658;48.908;9.140;2023-06-22T08:21:20;7.13;;;4.85;;
22983;SDS011;11658;48.908;9.140;2023-06-22T08:23:45;6.50;;;4.72;;
22983;SDS011;11658;48.908;9.140;2023-06-22T08:26:11;6.55;;;4.60;;
22983;SDS011;11658;48.908;9.140;2023-06-22T08:28:36;4.85;;;4.13;;
22983;SDS011;11658;48.908;9.140;2023-06-22T08:31:02;6.65;;;4.70;;
22983;SDS011;11658;48.908;9.140;2023-06-22T08:33:28;6.55;;;4.93;;
22983;SDS011;11658;48.908;9.140;2023-06-22T08:35:55;9.68;;;4.10;;
22983;SDS011;11658;48.908;9.140;2023-06-22T08:38:21;6.07;;;4.25;;
22983;SDS011;11658;48.908;9.140;2023-06-22T08:40:47;6.00;;;4.40;;
22983;SDS011;11658;48.908;9.140;2023-06-22T08:43:13;7.78;;;4.20;;
22983;SDS011;11658;48.908;9.140;2023-06-22T08:45:39;7.35;;;4.60;;
22983;SDS011;11658;48.908;9.140;2023-06-22T08:48:05;5.60;;;4.18;;
22983;SDS011;11658;48.908;9.140;2023-06-22T08:50:30;7.95;;;4.60;;
22983;SDS011;11658;48.908;9.140;2023-06-22T08:52:56;8.38;;;4.68;;
22983;SDS011;11658;48.908;9.140;2023-06-22T08:55:21;5.85;;;4.32;;
22983;SDS011;11658;48.908;9.140;2023-06-22T08:57:47;7.95;;;4.53;;
22983;SDS011;11658;48.908;9.140;2023-06-22T09:00:13;6.18;;;4.10;;
22983;SDS011;11658;48.908;9.140;2023-06-22T09:02:45;6.22;;;4.47;;
22983;SDS011;11658;48.908;9.140;2023-06-22T09:05:12;7.88;;;4.20;;
22983;SDS011;11658;48.908;9.140;2023-06-22T09:07:38;9.93;;;4.25;;
22983;SDS011;11658;48.908;9.140;2023-06-22T09:10:04;6.15;;;4.10;;
22983;SDS011;11658;48.908;9.140;2023-06-22T09:12:30;7.47;;;4.55;;
22983;SDS011;11658;48.908;9.140;2023-06-22T09:14:57;6.13;;;4.63;;
22983;SDS011;11658;48.908;9.140;2023-06-22T09:17:25;5.75;;;4.25;;
22983;SDS011;11658;48.908;9.140;2023-06-22T09:19:51;5.90;;;4.80;;
22983;SDS011;11658;48.908;9.140;2023-06-22T09:22:17;7.40;;;4.55;;
22983;SDS011;11658;48.908;9.140;2023-06-22T09:24:42;8.15;;;4.80;;
22983;SDS011;11658;48.908;9.140;2023-06-22T09:27:08;5.43;;;4.72;;
22983;SDS011;11658;48.908;9.140;2023-06-22T09:29:34;5.00;;;4.13;;
22983;SDS011;11658;48.908;9.140;2023-06-22T09:31:59;8.27;;;4.88;;
22983;SDS011;11658;48.908;9.140;2023-06-22T09:34:25;9.02;;;4.28;;
22983;SDS011;11658;48.908;9.140;2023-06-22T09:36:51;7.47;;;4.80;;
22983;SDS011;11658;48.908;9.140;2023-06-22T09:39:19;7.53;;;4.75;;
22983;SDS011;11658;48.908;9.140;2023-06-22T09:41:45;6.43;;;4.50;;
22983;SDS011;11658;48.908;9.140;2023-06-22T09:44:10;7.13;;;5.00;;
22983;SDS011;11658;48.908;9.140;2023-06-22T09:46:36;7.65;;;4.85;;
22983;SDS011;11658;48.908;9.140;2023-06-22T09:49:01;7.00;;;4.13;;
22983;SDS011;11658;48.908;9.140;2023-06-22T09:51:27;6.20;;;4.32;;
22983;SDS011;11658;48.908;9.140;2023-06-22T09:53:53;7.65;;;4.60;;
22983;SDS011;11658;48.908;9.140;2023-06-22T09:56:19;9.27;;;4.80;;
22983;SDS011;11658;48.908;9.140;2023-06-22T09:58:45;8.43;;;4.35;;
22983;SDS011;11658;48.908;9.140;2023-06-22T10:01:11;5.68;;;3.72;;
22983;SDS011;11658;48.908;9.140;2023-06-22T10:03:39;4.55;;;4.10;;
22983;SDS011;11658;48.908;9.140;2023-06-22T10:06:06;9.80;;;4.78;;
22983;SDS011;11658;48.908;9.140;2023-06-22T10:08:32;7.47;;;4.70;;
22983;SDS011;11658;48.908;9.140;2023-06-22T10:10:58;8.77;;;4.30;;
22983;SDS011;11658;48.908;9.140;2023-06-22T10:13:23;9.82;;;4.80;;
22983;SDS011;11658;48.908;9.140;2023-06-22T10:15:49;7.97;;;4.63;;
22983;SDS011;11658;48.908;9.140;2023-06-22T10:18:16;8.13;;;4.15;;
22983;SDS011;11658;48.908;9.140;2023-06-22T10:20:47;6.72;;;4.22;;
22983;SDS011;11658;48.908;9.140;2023-06-22T10:23:13;8.23;;;4.50;;
22983;SDS011;11658;48.908;9.140;2023-06-22T10:25:39;8.23;;;4.32;;
22983;SDS011;11658;48.908;9.140;2023-06-22T10:28:05;8.68;;;4.65;;
22983;SDS011;11658;48.908;9.140;2023-06-22T10:30:30;6.25;;;4.22;;
22983;SDS011;11658;48.908;9.140;2023-06-22T10:32:56;9.30;;;4.00;;
22983;SDS011;11658;48.908;9.140;2023-06-22T10:35:22;9.45;;;4.45;;
22983;SDS011;11658;48.908;9.140;2023-06-22T10:37:48;9.15;;;5.05;;
22983;SDS011;11658;48.908;9.140;2023-06-22T10:40:14;10.60;;;5.22;;
22983;SDS011;11658;48.908;9.140;2023-06-22T10:42:41;7.70;;;4.18;;
22983;SDS011;11658;48.908;9.140;2023-06-22T10:45:07;8.60;;;4.35;;
22983;SDS011;11658;48.908;9.140;2023-06-22T10:47:33;9.10;;;4.15;;
22983;SDS011;11658;48.908;9.140;2023-06-22T10:49:59;7.28;;;3.92;;
22983;SDS011;11658;48.908;9.140;2023-06-22T10:52:25;10.35;;;5.05;;
22983;SDS011;11658;48.908;9.140;2023-06-22T10:54:51;7.72;;;4.57;;
22983;SDS011;11658;48.908;9.140;2023-06-22T10:57:17;9.43;;;4.63;;
22983;SDS011;11658;48.908;9.140;2023-06-22T10:59:43;7.80;;;4.03;;
22983;SDS011;11658;48.908;9.140;2023-06-22T11:02:08;5.68;;;4.22;;
22983;SDS011;11658;48.908;9.140;2023-06-22T11:04:34;7.85;;;4.35;;
22983;SDS011;11658;48.908;9.140;2023-06-22T11:07:00;10.20;;;4.38;;
22983;SDS011;11658;48.908;9.140;2023-06-22T11:09:26;8.63;;;3.72;;
22983;SDS011;11658;48.908;9.140;2023-06-22T11:11:52;12.68;;;4.53;;
22983;SDS011;11658;48.908;9.140;2023-06-22T11:14:20;10.60;;;4.63;;
22983;SDS011;11658;48.908;9.140;2023-06-22T11:16:47;9.13;;;4.55;;
22983;SDS011;11658;48.908;9.140;2023-06-22T11:19:12;9.55;;;4.57;;
22983;SDS011;11658;48.908;9.140;2023-06-22T11:21:38;7.95;;;4.35;;
22983;SDS011;11658;48.908;9.140;2023-06-22T11:24:04;11.77;;;4.50;;
22983;SDS011;11658;48.908;9.140;2023-06-22T11:26:30;8.68;;;4.25;;
22983;SDS011;11658;48.908;9.140;2023-06-22T11:28:56;8.68;;;4.10;;
22983;SDS011;11658;48.908;9.140;2023-06-22T11:31:23;5.93;;;4.22;;
22983;SDS011;11658;48.908;9.140;2023-06-22T11:33:49;6.38;;;3.95;;
22983;SDS011;11658;48.908;9.140;2023-06-22T11:36:14;9.57;;;3.65;;
22983;SDS011;11658;48.908;9.140;2023-06-22T11:38:40;8.68;;;3.75;;
22983;SDS011;11658;48.908;9.140;2023-06-22T11:41:07;11.07;;;4.03;;
22983;SDS011;11658;48.908;9.140;2023-06-22T11:43:33;7.90;;;3.88;;
22983;SDS011;11658;48.908;9.140;2023-06-22T11:45:59;9.80;;;4.25;;
22983;SDS011;11658;48.908;9.140;2023-06-22T11:48:28;9.38;;;4.20;;
22983;SDS011;11658;48.908;9.140;2023-06-22T11:50:54;8.68;;;4.15;;
22983;SDS011;11658;48.908;9.140;2023-06-22T11:53:21;6.38;;;4.10;;
22983;SDS011;11658;48.908;9.140;2023-06-22T11:55:47;7.07;;;4.32;;
22983;SDS011;11658;48.908;9.140;2023-06-22T11:58:13;8.18;;;3.80;;
22983;SDS011;11658;48.908;9.140;2023-06-22T12:00:39;9.15;;;4.38;;
22983;SDS011;11658;48.908;9.140;2023-06-22T12:03:05;18.30;;;5.43;;
22983;SDS011;11658;48.908;9.140;2023-06-22T12:05:30;9.73;;;4.40;;
22983;SDS011;11658;48.908;9.140;2023-06-22T12:07:56;7.63;;;3.60;;
22983;SDS011;11658;48.908;9.140;2023-06-22T12:10:22;6.90;;;4.18;;
22983;SDS011;11658;48.908;9.140;2023-06-22T12:12:48;7.80;;;4.15;;
22983;SDS011;11658;48.908;9.140;2023-06-22T12:15:13;7.93;;;4.45;;
22983;SDS011;11658;48.908;9.140;2023-06-22T12:17:39;9.50;;;4.55;;
22983;SDS011;11658;48.908;9.140;2023-06-22T12:20:06;10.88;;;4.85;;
22983;SDS011;11658;48.908;9.140;2023-06-22T12:22:32;9.80;;;4.30;;
22983;SDS011;11658;48.908;9.140;2023-06-22T12:24:58;9.13;;;4.68;;
22983;SDS011;11658;48.908;9.140;2023-06-22T12:27:24;7.45;;;4.20;;
22983;SDS011;11658;48.908;9.140;2023-06-22T12:29:50;8.05;;;3.72;;
22983;SDS011;11658;48.908;9.140;2023-06-22T12:32:16;10.85;;;4.20;;
22983;SDS011;11658;48.908;9.140;2023-06-22T12:34:42;7.00;;;4.20;;
22983;SDS011;11658;48.908;9.140;2023-06-22T12:37:08;10.88;;;4.78;;
22983;SDS011;11658;48.908;9.140;2023-06-22T12:39:33;7.22;;;4.10;;
22983;SDS011;11658;48.908;9.140;2023-06-22T12:41:59;9.40;;;4.45;;
22983;SDS011;11658;48.908;9.140;2023-06-22T12:44:25;8.25;;;4.40;;
22983;SDS011;11658;48.908;9.140;2023-06-22T12:46:51;8.73;;;4.35;;
22983;SDS011;11658;48.908;9.140;2023-06-22T12:49:16;8.27;;;4.43;;
22983;SDS011;11658;48.908;9.140;2023-06-22T12:51:43;7.68;;;4.00;;
22983;SDS011;11658;48.908;9.140;2023-06-22T12:54:09;7.88;;;4.30;;
22983;SDS011;11658;48.908;9.140;2023-06-22T12:56:35;8.65;;;4.60;;
22983;SDS011;11658;48.908;9.140;2023-06-22T12:59:01;6.00;;;3.90;;
22983;SDS011;11658;48.908;9.140;2023-06-22T13:01:28;7.22;;;4.03;;
22983;SDS011;11658;48.908;9.140;2023-06-22T13:03:55;8.38;;;3.88;;
22983;SDS011;11658;48.908;9.140;2023-06-22T13:06:20;7.10;;;4.50;;
22983;SDS011;11658;48.908;9.140;2023-06-22T13:08:46;8.07;;;4.60;;
22983;SDS011;11658;48.908;9.140;2023-06-22T13:11:11;10.95;;;4.47;;
22983;SDS011;11658;48.908;9.140;2023-06-22T13:13:38;10.45;;;4.47;;
22983;SDS011;11658;48.908;9.140;2023-06-22T13:16:04;6.53;;;4.30;;
22983;SDS011;11658;48.908;9.140;2023-06-22T13:18:29;10.32;;;4.88;;
22983;SDS011;11658;48.908;9.140;2023-06-22T13:20:55;15.13;;;4.65;;
22983;SDS011;11658;48.908;9.140;2023-06-22T13:23:21;13.45;;;4.70;;
22983;SDS011;11658;48.908;9.140;2023-06-22T13:25:47;10.45;;;4.88;;
22983;SDS011;11658;48.908;9.140;2023-06-22T13:28:12;10.38;;;5.00;;
22983;SDS011;11658;48.908;9.140;2023-06-22T13:30:41;10.35;;;4.32;;
22983;SDS011;11658;48.908;9.140;2023-06-22T13:33:08;9.10;;;4.47;;
22983;SDS011;11658;48.908;9.140;2023-06-22T13:35:34;10.75;;;4.68;;
22983;SDS011;11658;48.908;9.140;2023-06-22T13:38:02;8.77;;;4.70;;
22983;SDS011;11658;48.908;9.140;2023-06-22T13:40:28;6.95;;;4.32;;
22983;SDS011;11658;48.908;9.140;2023-06-22T13:42:54;11.40;;;4.60;;
22983;SDS011;11658;48.908;9.140;2023-06-22T13:45:20;9.05;;;4.90;;
22983;SDS011;11658;48.908;9.140;2023-06-22T13:47:46;10.57;;;5.03;;
22983;SDS011;11658;48.908;9.140;2023-06-22T13:50:12;7.72;;;4.65;;
22983;SDS011;11658;48.908;9.140;2023-06-22T13:52:38;11.27;;;4.38;;
22983;SDS011;11658;48.908;9.140;2023-06-22T13:55:04;8.13;;;4.40;;
22983;SDS011;11658;48.908;9.140;2023-06-22T13:57:31;9.77;;;4.18;;
22983;SDS011;11658;48.908;9.140;2023-06-22T13:59:58;10.48;;;4.60;;
22983;SDS011;11658;48.908;9.140;2023-06-22T14:02:25;8.65;;;4.20;;
22983;SDS011;11658;48.908;9.140;2023-06-22T14:04:51;8.05;;;4.18;;
22983;SDS011;11658;48.908;9.140;2023-06-22T14:07:17;9.27;;;4.40;;
22983;SDS011;11658;48.908;9.140;2023-06-22T14:09:44;8.75;;;4.32;;
22983;SDS011;11658;48.908;9.140;2023-06-22T14:12:10;10.32;;;4.65;;
22983;SDS011;11658;48.908;9.140;2023-06-22T14:14:36;9.20;;;4.75;;
22983;SDS011;11658;48.908;9.140;2023-06-22T14:17:01;9.32;;;4.90;;
22983;SDS011;11658;48.908;9.140;2023-06-22T14:19:28;9.48;;;4.97;;
22983;SDS011;11658;48.908;9.140;2023-06-22T14:21:53;11.23;;;4.63;;
22983;SDS011;11658;48.908;9.140;2023-06-22T14:24:19;7.25;;;4.28;;
22983;SDS011;11658;48.908;9.140;2023-06-22T14:26:45;10.43;;;4.50;;
22983;SDS011;11658;48.908;9.140;2023-06-22T14:29:10;8.75;;;4.65;;
22983;SDS011;11658;48.908;9.140;2023-06-22T14:31:36;10.85;;;4.50;;
22983;SDS011;11658;48.908;9.140;2023-06-22T14:34:01;11.32;;;4.85;;
22983;SDS011;11658;48.908;9.140;2023-06-22T14:36:31;7.22;;;4.68;;
22983;SDS011;11658;48.908;9.140;2023-06-22T14:38:56;11.43;;;4.78;;
22983;SDS011;11658;48.908;9.140;2023-06-22T14:41:22;8.95;;;5.32;;
22983;SDS011;11658;48.908;9.140;2023-06-22T14:43:49;10.35;;;4.20;;
22983;SDS011;11658;48.908;9.140;2023-06-22T14:46:15;9.38;;;4.78;;
22983;SDS011;11658;48.908;9.140;2023-06-22T14:48:42;13.32;;;4.47;;
22983;SDS011;11658;48.908;9.140;2023-06-22T14:51:09;9.65;;;4.40;;
22983;SDS011;11658;48.908;9.140;2023-06-22T14:53:36;6.93;;;4.00;;
22983;SDS011;11658;48.908;9.140;2023-06-22T14:56:01;15.65;;;3.60;;
22983;SDS011;11658;48.908;9.140;2023-06-22T14:58:31;12.90;;;3.70;;
22983;SDS011;11658;48.908;9.140;2023-06-22T15:01:03;14.45;;;3.40;;
22983;SDS011;11658;48.908;9.140;2023-06-22T15:03:29;8.55;;;3.20;;
22983;SDS011;11658;48.908;9.140;2023-06-22T15:05:57;12.38;;;3.05;;
22983;SDS011;11658;48.908;9.140;2023-06-22T15:08:23;9.43;;;3.20;;
22983;SDS011;11658;48.908;9.140;2023-06-22T15:10:49;10.20;;;2.90;;
22983;SDS011;11658;48.908;9.140;2023-06-22T15:13:15;8.40;;;2.58;;
22983;SDS011;11658;48.908;9.140;2023-06-22T15:15:42;11.05;;;2.97;;
22983;SDS011;11658;48.908;9.140;2023-06-22T15:18:08;10.35;;;3.13;;
22983;SDS011;11658;48.908;9.140;2023-06-22T15:20:33;9.75;;;3.40;;
22983;SDS011;11658;48.908;9.140;2023-06-22T15:22:59;5.90;;;2.78;;
22983;SDS011;11658;48.908;9.140;2023-06-22T15:25:25;9.40;;;2.95;;
22983;SDS011;11658;48.908;9.140;2023-06-22T15:27:50;12.63;;;3.30;;
22983;SDS011;11658;48.908;9.140;2023-06-22T15:30:16;10.00;;;3.22;;
22983;SDS011;11658;48.908;9.140;2023-06-22T15:32:45;9.43;;;2.92;;
22983;SDS011;11658;48.908;9.140;2023-06-22T15:35:11;12.43;;;3.20;;
22983;SDS011;11658;48.908;9.140;2023-06-22T15:37:37;8.32;;;3.17;;
22983;SDS011;11658;48.908;9.140;2023-06-22T15:40:03;12.52;;;2.97;;
22983;SDS011;11658;48.908;9.140;2023-06-22T15:42:30;7.88;;;2.80;;
22983;SDS011;11658;48.908;9.140;2023-06-22T15:44:55;7.78;;;2.70;;
22983;SDS011;11658;48.908;9.140;2023-06-22T15:47:21;9.70;;;3.28;;
22983;SDS011;11658;48.908;9.140;2023-06-22T15:49:48;10.27;;;2.97;;
22983;SDS011;11658;48.908;9.140;2023-06-22T15:52:15;7.95;;;2.88;;
22983;SDS011;11658;48.908;9.140;2023-06-22T15:54:44;7.57;;;2.83;;
22983;SDS011;11658;48.908;9.140;2023-06-22T15:57:10;9.25;;;3.40;;
22983;SDS011;11658;48.908;9.140;2023-06-22T15:59:41;8.00;;;3.17;;
22983;SDS011;11658;48.908;9.140;2023-06-22T16:02:08;13.18;;;3.35;;
22983;SDS011;11658;48.908;9.140;2023-06-22T16:04:34;10.13;;;3.10;;
22983;SDS011;11658;48.908;9.140;2023-06-22T16:07:01;9.85;;;3.10;;
22983;SDS011;11658;48.908;9.140;2023-06-22T16:09:27;8.23;;;3.30;;
22983;SDS011;11658;48.908;9.140;2023-06-22T16:11:54;8.68;;;3.50;;
22983;SDS011;11658;48.908;9.140;2023-06-22T16:14:19;7.18;;;3.40;;
22983;SDS011;11658;48.908;9.140;2023-06-22T16:16:46;10.95;;;3.38;;
22983;SDS011;11658;48.908;9.140;2023-06-22T16:19:11;10.98;;;3.25;;
22983;SDS011;11658;48.908;9.140;2023-06-22T16:21:37;6.05;;;2.65;;
22983;SDS011;11658;48.908;9.140;2023-06-22T16:24:02;12.43;;;3.10;;
22983;SDS011;11658;48.908;9.140;2023-06-22T16:26:30;9.88;;;3.40;;
22983;SDS011;11658;48.908;9.140;2023-06-22T16:29:02;7.68;;;3.40;;
22983;SDS011;11658;48.908;9.140;2023-06-22T16:31:28;10.23;;;3.45;;
22983;SDS011;11658;48.908;9.140;2023-06-22T16:33:53;7.13;;;3.20;;
22983;SDS011;11658;48.908;9.140;2023-06-22T16:36:19;9.40;;;3.55;;
22983;SDS011;11658;48.908;9.140;2023-06-22T16:38:45;10.23;;;3.40;;
22983;SDS011;11658;48.908;9.140;2023-06-22T16:41:11;10.95;;;3.30;;
22983;SDS011;11658;48.908;9.140;2023-06-22T16:43:37;7.60;;;3.22;;
22983;SDS011;11658;48.908;9.140;2023-06-22T16:46:04;9.52;;;3.03;;
22983;SDS011;11658;48.908;9.140;2023-06-22T16:48:29;8.73;;;3.13;;
22983;SDS011;11658;48.908;9.140;2023-06-22T16:50:55;8.70;;;3.40;;
22983;SDS011;11658;48.908;9.140;2023-06-22T16:53:21;11.38;;;3.33;;
22983;SDS011;11658;48.908;9.140;2023-06-22T16:55:50;9.45;;;2.95;;
22983;SDS011;11658;48.908;9.140;2023-06-22T16:58:17;7.30;;;2.75;;
22983;SDS011;11658;48.908;9.140;2023-06-22T17:00:47;10.05;;;3.35;;
22983;SDS011;11658;48.908;9.140;2023-06-22T17:03:29;10.55;;;2.78;;
22983;SDS011;11658;48.908;9.140;2023-06-22T17:05:58;10.82;;;2.92;;
22983;SDS011;11658;48.908;9.140;2023-06-22T17:08:25;8.10;;;2.72;;
22983;SDS011;11658;48.908;9.140;2023-06-22T17:10:54;10.50;;;3.17;;
22983;SDS011;11658;48.908;9.140;2023-06-22T17:13:20;6.22;;;2.78;;
22983;SDS011;11658;48.908;9.140;2023-06-22T17:15:46;9.70;;;3.10;;
22983;SDS011;11658;48.908;9.140;2023-06-22T17:18:17;9.98;;;3.10;;
22983;SDS011;11658;48.908;9.140;2023-06-22T17:20:44;10.73;;;3.40;;
22983;SDS011;11658;48.908;9.140;2023-06-22T17:23:10;10.20;;;3.28;;
22983;SDS011;11658;48.908;9.140;2023-06-22T17:25:35;8.48;;;3.08;;
22983;SDS011;11658;48.908;9.140;2023-06-22T17:28:02;10.40;;;3.90;;
22983;SDS011;11658;48.908;9.140;2023-06-22T17:30:28;9.75;;;3.35;;
22983;SDS011;11658;48.908;9.140;2023-06-22T17:32:54;9.27;;;3.22;;
22983;SDS011;11658;48.908;9.140;2023-06-22T17:35:20;7.78;;;3.30;;
22983;SDS011;11658;48.908;9.140;2023-06-22T17:37:53;10.15;;;2.85;;
22983;SDS011;11658;48.908;9.140;2023-06-22T17:40:21;9.13;;;3.40;;
22983;SDS011;11658;48.908;9.140;2023-06-22T17:42:51;10.23;;;3.10;;
22983;SDS011;11658;48.908;9.140;2023-06-22T17:45:28;9.27;;;3.20;;
22983;SDS011;11658;48.908;9.140;2023-06-22T17:47:54;8.43;;;3.42;;
22983;SDS011;11658;48.908;9.140;2023-06-22T17:50:23;7.53;;;2.90;;
22983;SDS011;11658;48.908;9.140;2023-06-22T17:52:49;10.95;;;3.17;;
22983;SDS011;11658;48.908;9.140;2023-06-22T17:55:19;8.02;;;2.95;;
22983;SDS011;11658;48.908;9.140;2023-06-22T17:57:46;8.48;;;3.20;;
22983;SDS011;11658;48.908;9.140;2023-06-22T18:00:18;11.52;;;4.00;;
22983;SDS011;11658;48.908;9.140;2023-06-22T18:02:44;9.57;;;3.60;;
22983;SDS011;11658;48.908;9.140;2023-06-22T18:05:10;9.38;;;3.30;;
22983;SDS011;11658;48.908;9.140;2023-06-22T18:07:36;11.02;;;3.53;;
22983;SDS011;11658;48.908;9.140;2023-06-22T18:10:02;9.68;;;3.25;;
22983;SDS011;11658;48.908;9.140;2023-06-22T18:12:33;7.80;;;3.03;;
22983;SDS011;11658;48.908;9.140;2023-06-22T18:14:59;8.75;;;3.25;;
22983;SDS011;11658;48.908;9.140;2023-06-22T18:17:26;10.40;;;3.20;;
22983;SDS011;11658;48.908;9.140;2023-06-22T18:19:53;9.48;;;3.30;;
22983;SDS011;11658;48.908;9.140;2023-06-22T18:22:20;8.30;;;3.15;;
22983;SDS011;11658;48.908;9.140;2023-06-22T18:24:48;11.65;;;3.30;;
22983;SDS011;11658;48.908;9.140;2023-06-22T18:27:15;9.13;;;3.40;;
22983;SDS011;11658;48.908;9.140;2023-06-22T18:29:41;9.45;;;3.33;;
22983;SDS011;11658;48.908;9.140;2023-06-22T18:32:09;9.77;;;3.17;;
22983;SDS011;11658;48.908;9.140;2023-06-22T18:34:38;8.35;;;3.08;;
22983;SDS011;11658;48.908;9.140;2023-06-22T18:37:05;10.95;;;3.30;;
22983;SDS011;11658;48.908;9.140;2023-06-22T18:39:35;11.32;;;4.05;;
22983;SDS011;11658;48.908;9.140;2023-06-22T18:42:03;8.38;;;3.38;;
22983;SDS011;11658;48.908;9.140;2023-06-22T18:44:31;7.68;;;3.13;;